createdAt,value
2023-04-20T00:00:54.412Z,509.00
2023-04-20T00:01:54.504Z,505.00
2023-04-20T00:02:54.557Z,507.00
2023-04-20T00:03:54.798Z,508.00
2023-04-20T00:04:53.566Z,501.00
2023-04-20T00:05:54.423Z,502.00
2023-04-20T00:06:54.418Z,500.00
2023-04-20T00:07:54.402Z,506.00
2023-04-20T00:08:54.506Z,507.00
2023-04-20T00:09:54.371Z,503.00
2023-04-20T00:10:54.324Z,503.00
2023-04-20T00:11:53.309Z,505.00
2023-04-20T00:12:54.306Z,503.00
2023-04-20T00:13:54.319Z,500.00
2023-04-20T00:14:53.313Z,508.00
2023-04-20T00:15:54.307Z,507.00
2023-04-20T00:16:54.428Z,507.00
2023-04-20T00:17:54.356Z,502.00
2023-04-20T00:18:54.320Z,507.00
2023-04-20T00:19:54.459Z,510.00
2023-04-20T00:20:53.365Z,503.00
2023-04-20T00:21:54.370Z,509.00
2023-04-20T00:22:54.398Z,506.00
2023-04-20T00:23:54.340Z,505.00
2023-04-20T00:24:54.514Z,500.00
2023-04-20T00:25:53.487Z,506.00
2023-04-20T00:26:54.393Z,510.00
2023-04-20T00:27:54.476Z,503.00
2023-04-20T00:28:54.387Z,507.00
2023-04-20T00:29:53.497Z,503.00
2023-04-20T00:30:54.560Z,508.00
2023-04-20T00:31:54.391Z,504.00
2023-04-20T00:32:53.436Z,502.00
2023-04-20T00:33:54.388Z,504.00
2023-04-20T00:34:53.438Z,504.00
2023-04-20T00:35:53.723Z,510.00
2023-04-20T00:36:54.856Z,506.00
2023-04-20T00:37:54.446Z,512.00
2023-04-20T00:38:54.335Z,504.00
2023-04-20T00:39:54.311Z,505.00
2023-04-20T00:40:54.314Z,511.00
2023-04-20T00:41:54.311Z,509.00
2023-04-20T00:42:54.326Z,505.00
2023-04-20T00:43:54.357Z,506.00
2023-04-20T00:44:54.334Z,511.00
2023-04-20T00:45:54.402Z,504.00
2023-04-20T00:46:54.325Z,505.00
2023-04-20T00:47:53.409Z,502.00
2023-04-20T00:48:53.327Z,504.00
2023-04-20T00:49:54.400Z,505.00
2023-04-20T00:50:53.384Z,504.00
2023-04-20T00:51:54.462Z,512.00
2023-04-20T00:52:54.470Z,504.00
2023-04-20T00:53:53.441Z,503.00
2023-04-20T00:54:54.490Z,510.00
2023-04-20T00:55:53.576Z,507.00
2023-04-20T00:56:54.475Z,512.00
2023-04-20T00:57:54.488Z,508.00
2023-04-20T00:58:54.435Z,502.00
2023-04-20T00:59:53.422Z,511.00
2023-04-20T01:00:54.313Z,510.00
2023-04-20T01:01:54.402Z,503.00
2023-04-20T01:02:54.425Z,501.00
2023-04-20T01:03:54.381Z,510.00
2023-04-20T01:04:53.334Z,507.00
2023-04-20T01:05:53.328Z,505.00
2023-04-20T01:06:54.348Z,512.00
2023-04-20T01:07:54.337Z,515.00
2023-04-20T01:08:54.443Z,509.00
2023-04-20T01:09:54.481Z,509.00
2023-04-20T01:10:54.517Z,505.00
2023-04-20T01:12:04.934Z,508.00
2023-04-20T01:12:54.487Z,509.00
2023-04-20T01:13:54.489Z,510.00
2023-04-20T01:14:54.478Z,512.00
2023-04-20T01:15:54.531Z,513.00
2023-04-20T01:16:53.495Z,514.00
2023-04-20T01:17:54.473Z,512.00
2023-04-20T01:18:54.530Z,506.00
2023-04-20T01:19:53.505Z,508.00
2023-04-20T01:20:54.502Z,505.00
2023-04-20T01:21:53.530Z,506.00
2023-04-20T01:22:53.536Z,501.00
2023-04-20T01:23:53.587Z,500.00
2023-04-20T01:24:54.676Z,503.00
2023-04-20T01:25:54.706Z,508.00
2023-04-20T01:26:54.717Z,501.00
2023-04-20T01:27:54.666Z,500.00
2023-04-20T01:28:54.734Z,508.00
2023-04-20T01:29:53.713Z,504.00
2023-04-20T01:30:53.754Z,509.00
2023-04-20T01:31:54.844Z,507.00
2023-04-20T01:32:54.734Z,501.00
2023-04-20T01:33:54.734Z,506.00
2023-04-20T01:34:54.728Z,502.00
2023-04-20T01:35:53.752Z,500.00
2023-04-20T01:36:54.798Z,505.00
2023-04-20T01:37:54.759Z,510.00
2023-04-20T01:38:54.611Z,507.00
2023-04-20T01:39:53.685Z,506.00
2023-04-20T01:40:54.616Z,509.00
2023-04-20T01:41:54.680Z,510.00
2023-04-20T01:42:54.681Z,503.00
2023-04-20T01:43:54.665Z,503.00
2023-04-20T01:44:53.700Z,503.00
2023-04-20T01:45:54.687Z,502.00
2023-04-20T01:46:54.766Z,506.00
2023-04-20T01:47:54.738Z,507.00
2023-04-20T01:48:54.709Z,506.00
2023-04-20T01:49:54.725Z,509.00
2023-04-20T01:50:54.743Z,507.00
2023-04-20T01:51:53.732Z,505.00
2023-04-20T01:52:54.751Z,500.00
2023-04-20T01:53:54.762Z,510.00
2023-04-20T01:54:54.784Z,509.00
2023-04-20T01:55:54.844Z,504.00
2023-04-20T01:56:54.819Z,510.00
2023-04-20T01:57:54.819Z,508.00
2023-04-20T01:58:54.845Z,509.00
2023-04-20T01:59:54.836Z,502.00
2023-04-20T02:00:54.939Z,509.00
2023-04-20T02:01:54.880Z,509.00
2023-04-20T02:02:54.071Z,509.00
2023-04-20T02:03:54.984Z,507.00
2023-04-20T02:04:53.914Z,504.00
2023-04-20T02:05:55.152Z,502.00
2023-04-20T02:06:53.975Z,507.00
2023-04-20T02:07:54.984Z,500.00
2023-04-20T02:08:55.041Z,508.00
2023-04-20T02:09:55.034Z,510.00
2023-04-20T02:10:55.024Z,510.00
2023-04-20T02:11:55.162Z,506.00
2023-04-20T02:12:55.123Z,511.00
2023-04-20T02:13:55.128Z,507.00
2023-04-20T02:14:54.054Z,514.00
2023-04-20T02:15:54.052Z,511.00
2023-04-20T02:16:55.353Z,507.00
2023-04-20T02:17:55.149Z,511.00
2023-04-20T02:18:55.071Z,508.00
2023-04-20T02:19:54.089Z,504.00
2023-04-20T02:20:55.155Z,509.00
2023-04-20T02:21:54.000Z,506.00
2023-04-20T02:22:55.493Z,509.00
2023-04-20T02:23:55.135Z,504.00
2023-04-20T02:24:54.034Z,509.00
2023-04-20T02:25:56.017Z,510.00
2023-04-20T02:26:55.092Z,516.00
2023-04-20T02:27:56.694Z,510.00
2023-04-20T02:28:54.051Z,516.00
2023-04-20T02:29:55.022Z,511.00
2023-04-20T02:30:55.896Z,513.00
2023-04-20T02:31:55.039Z,513.00
2023-04-20T02:32:55.132Z,517.00
2023-04-20T02:33:55.063Z,511.00
2023-04-20T02:34:54.010Z,508.00
2023-04-20T02:35:54.036Z,516.00
2023-04-20T02:36:55.178Z,506.00
2023-04-20T02:37:54.983Z,511.00
2023-04-20T02:38:53.886Z,507.00
2023-04-20T02:39:54.906Z,511.00
2023-04-20T02:40:54.868Z,504.00
2023-04-20T02:41:54.860Z,510.00
2023-04-20T02:42:53.861Z,507.00
2023-04-20T02:43:54.850Z,509.00
2023-04-20T02:44:53.847Z,510.00
2023-04-20T02:45:54.842Z,505.00
2023-04-20T02:46:54.016Z,507.00
2023-04-20T02:47:54.838Z,503.00
2023-04-20T02:48:54.818Z,510.00
2023-04-20T02:49:54.805Z,505.00
2023-04-20T02:50:54.819Z,508.00
2023-04-20T02:51:54.799Z,503.00
2023-04-20T02:52:54.769Z,511.00
2023-04-20T02:53:53.760Z,508.00
2023-04-20T02:54:54.758Z,505.00
2023-04-20T02:55:53.915Z,507.00
2023-04-20T02:56:56.499Z,506.00
2023-04-20T02:57:54.883Z,506.00
2023-04-20T02:58:53.870Z,506.00
2023-04-20T02:59:53.901Z,506.00
2023-04-20T03:00:54.826Z,506.00
2023-04-20T03:01:54.099Z,506.00
2023-04-20T03:02:55.026Z,503.00
2023-04-20T03:03:54.995Z,507.00
2023-04-20T03:04:54.012Z,500.00
2023-04-20T03:05:56.604Z,504.00
2023-04-20T03:06:54.769Z,509.00
2023-04-20T03:07:54.837Z,506.00
2023-04-20T03:08:53.752Z,507.00
2023-04-20T03:09:54.732Z,505.00
2023-04-20T03:10:54.772Z,502.00
2023-04-20T03:11:53.709Z,505.00
2023-04-20T03:12:54.812Z,509.00
2023-04-20T03:13:54.694Z,500.00
2023-04-20T03:14:55.301Z,505.00
2023-04-20T03:15:53.709Z,511.00
2023-04-20T03:16:54.738Z,506.00
2023-04-20T03:17:54.843Z,504.00
2023-04-20T03:18:53.694Z,507.00
2023-04-20T03:19:54.735Z,505.00
2023-04-20T03:20:54.743Z,502.00
2023-04-20T03:21:54.707Z,501.00
2023-04-20T03:22:54.647Z,505.00
2023-04-20T03:23:54.739Z,502.00
2023-04-20T03:24:53.796Z,505.00
2023-04-20T03:25:53.736Z,503.00
2023-04-20T03:26:54.762Z,515.00
2023-04-20T03:27:54.787Z,506.00
2023-04-20T03:28:54.791Z,507.00
2023-04-20T03:29:53.919Z,510.00
2023-04-20T03:30:53.909Z,502.00
2023-04-20T03:31:55.066Z,508.00
2023-04-20T03:32:55.057Z,505.00
2023-04-20T03:33:54.116Z,506.00
2023-04-20T03:34:54.209Z,506.00
2023-04-20T03:35:55.334Z,506.00
2023-04-20T03:36:55.443Z,505.00
2023-04-20T03:37:55.373Z,506.00
2023-04-20T03:38:54.515Z,507.00
2023-04-20T03:39:54.515Z,505.00
2023-04-20T03:40:55.710Z,506.00
2023-04-20T03:41:55.667Z,501.00
2023-04-20T03:42:55.766Z,505.00
2023-04-20T03:43:54.851Z,504.00
2023-04-20T03:44:55.725Z,507.00
2023-04-20T03:45:55.972Z,506.00
2023-04-20T03:46:55.954Z,508.00
2023-04-20T03:47:55.989Z,503.00
2023-04-20T03:48:55.027Z,503.00
2023-04-20T03:49:55.092Z,502.00
2023-04-20T03:50:55.178Z,501.00
2023-04-20T03:51:55.310Z,503.00
2023-04-20T03:52:56.384Z,501.00
2023-04-20T03:53:55.405Z,507.00
2023-04-20T03:54:56.423Z,504.00
2023-04-20T03:55:56.675Z,505.00
2023-04-20T03:56:55.619Z,500.00
2023-04-20T03:57:56.631Z,501.00
2023-04-20T03:58:55.791Z,501.00
2023-04-20T03:59:56.761Z,500.00
2023-04-20T04:00:57.057Z,505.00
2023-04-20T04:01:57.007Z,503.00
2023-04-20T04:02:56.075Z,508.00
2023-04-20T04:03:57.388Z,503.00
2023-04-20T04:04:56.267Z,509.00
2023-04-20T04:05:57.160Z,504.00
2023-04-20T04:06:56.192Z,502.00
2023-04-20T04:07:56.313Z,507.00
2023-04-20T04:08:57.196Z,506.00
2023-04-20T04:09:57.253Z,503.00
2023-04-20T04:10:57.319Z,504.00
2023-04-20T04:11:57.394Z,505.00
2023-04-20T04:12:57.476Z,500.00
2023-04-20T04:13:56.514Z,502.00
2023-04-20T04:14:56.555Z,507.00
2023-04-20T04:15:57.666Z,502.00
2023-04-20T04:16:57.683Z,506.00
2023-04-20T04:17:57.794Z,503.00
2023-04-20T04:18:56.758Z,509.00
2023-04-20T04:19:57.805Z,501.00
2023-04-20T04:20:57.899Z,503.00
2023-04-20T04:21:57.920Z,507.00
2023-04-20T04:22:58.057Z,505.00
2023-04-20T04:23:58.233Z,505.00
2023-04-20T04:24:58.113Z,508.00
2023-04-20T04:25:58.189Z,504.00
2023-04-20T04:26:57.229Z,504.00
2023-04-20T04:27:58.312Z,506.00
2023-04-20T04:28:58.370Z,508.00
2023-04-20T04:29:58.411Z,502.00
2023-04-20T04:30:57.489Z,506.00
2023-04-20T04:31:58.532Z,511.00
2023-04-20T04:32:58.611Z,509.00
2023-04-20T04:33:58.635Z,508.00
2023-04-20T04:34:57.701Z,507.00
2023-04-20T04:35:58.811Z,511.00
2023-04-20T04:36:58.848Z,512.00
2023-04-20T04:37:58.872Z,507.00
2023-04-20T04:38:58.972Z,513.00
2023-04-20T04:39:59.021Z,511.00
2023-04-20T04:40:59.069Z,513.00
2023-04-20T04:41:59.134Z,509.00
2023-04-20T04:42:58.187Z,507.00
2023-04-20T04:43:59.216Z,511.00
2023-04-20T04:44:59.282Z,505.00
2023-04-20T04:45:59.334Z,508.00
2023-04-20T04:46:59.387Z,506.00
2023-04-20T04:47:59.405Z,508.00
2023-04-20T04:48:59.453Z,510.00
2023-04-20T04:49:59.518Z,504.00
2023-04-20T04:50:59.560Z,504.00
2023-04-20T04:51:58.612Z,505.00
2023-04-20T04:52:58.702Z,506.00
2023-04-20T04:53:59.732Z,503.00
2023-04-20T04:54:59.804Z,503.00
2023-04-20T04:55:58.831Z,503.00
2023-04-20T04:56:59.905Z,505.00
2023-04-20T04:57:59.975Z,504.00
2023-04-20T04:59:00.036Z,506.00
2023-04-20T05:00:00.151Z,508.00
2023-04-20T05:00:59.152Z,507.00
2023-04-20T05:01:59.262Z,509.00
2023-04-20T05:03:00.457Z,506.00
2023-04-20T05:04:00.453Z,504.00
2023-04-20T05:04:59.455Z,505.00
2023-04-20T05:06:00.463Z,509.00
2023-04-20T05:07:00.535Z,507.00
2023-04-20T05:08:00.604Z,511.00
2023-04-20T05:08:59.688Z,505.00
2023-04-20T05:10:00.689Z,506.00
2023-04-20T05:11:00.806Z,506.00
2023-04-20T05:11:59.821Z,507.00
2023-04-20T05:13:00.887Z,504.00
2023-04-20T05:14:01.551Z,501.00
2023-04-20T05:15:01.574Z,511.00
2023-04-20T05:17:19.176Z,500.00
2023-04-20T05:18:19.149Z,500.00
2023-04-20T05:19:20.147Z,500.00
2023-04-20T05:20:20.126Z,500.00
2023-04-20T05:21:20.138Z,500.00
2023-04-20T05:22:19.122Z,500.00
2023-04-20T05:23:20.131Z,500.00
2023-04-20T05:24:20.120Z,509.00
2023-04-20T05:25:20.124Z,499.00
2023-04-20T05:26:20.121Z,513.00
2023-04-20T05:27:20.086Z,520.00
2023-04-20T05:28:20.074Z,532.00
2023-04-20T05:29:20.058Z,538.00
2023-04-20T05:30:21.932Z,541.00
2023-04-20T05:31:20.168Z,541.00
2023-04-20T05:32:20.124Z,544.00
2023-04-20T05:33:20.053Z,546.00
2023-04-20T05:34:20.096Z,548.00
2023-04-20T05:35:19.027Z,558.00
2023-04-20T05:36:20.022Z,575.00
2023-04-20T05:37:20.011Z,570.00
2023-04-20T05:38:20.017Z,574.00
2023-04-20T05:39:20.284Z,579.00
2023-04-20T05:40:20.021Z,582.00
2023-04-20T05:41:19.013Z,589.00
2023-04-20T05:42:20.004Z,588.00
2023-04-20T05:43:19.954Z,590.00
2023-04-20T05:44:18.959Z,597.00
2023-04-20T05:45:18.951Z,602.00
2023-04-20T05:46:20.002Z,608.00
2023-04-20T05:47:19.990Z,619.00
2023-04-20T05:48:19.931Z,632.00
2023-04-20T05:49:20.012Z,637.00
2023-04-20T05:50:18.904Z,647.00
2023-04-20T05:51:19.927Z,658.00
2023-04-20T05:52:18.906Z,662.00
2023-04-20T05:53:19.905Z,690.00
2023-04-20T05:54:18.888Z,727.00
2023-04-20T05:55:22.084Z,803.00
2023-04-20T05:56:18.946Z,805.00
2023-04-20T05:57:18.855Z,808.00
2023-04-20T05:58:19.920Z,824.00
2023-04-20T05:59:19.961Z,850.00
2023-04-20T06:00:19.849Z,903.00
2023-04-20T06:01:18.842Z,931.00
2023-04-20T06:02:19.042Z,947.00
2023-04-20T06:03:19.019Z,967.00
2023-04-20T06:04:20.135Z,979.00
2023-04-20T06:05:18.899Z,987.00
2023-04-20T06:06:19.802Z,1009.00
2023-04-20T06:07:19.805Z,1012.00
2023-04-20T06:08:19.800Z,1025.00
2023-04-20T06:09:19.847Z,1043.00
2023-04-20T06:10:19.802Z,1033.00
2023-04-20T06:11:19.772Z,1029.00
2023-04-20T06:12:19.740Z,1028.00
2023-04-20T06:13:18.751Z,1030.00
2023-04-20T06:14:18.762Z,1045.00
2023-04-20T06:15:18.759Z,1028.00
2023-04-20T06:16:19.773Z,1036.00
2023-04-20T06:17:18.751Z,1030.00
2023-04-20T06:18:20.009Z,1028.00
2023-04-20T06:19:20.524Z,1023.00
2023-04-20T06:20:19.734Z,1027.00
2023-04-20T06:21:19.798Z,1020.00
2023-04-20T06:22:19.807Z,1011.00
2023-04-20T06:23:18.886Z,1014.00
2023-04-20T06:24:19.912Z,1010.00
2023-04-20T06:25:19.968Z,1000.00
2023-04-20T06:26:20.025Z,1000.00
2023-04-20T06:27:19.120Z,1007.00
2023-04-20T06:28:19.143Z,996.00
2023-04-20T06:29:19.434Z,995.00
2023-04-20T06:30:19.332Z,989.00
2023-04-20T06:31:20.361Z,1006.00
2023-04-20T06:32:20.453Z,987.00
2023-04-20T06:33:19.407Z,992.00
2023-04-20T06:34:20.437Z,990.00
2023-04-20T06:35:19.509Z,989.00
2023-04-20T06:36:20.509Z,989.00
2023-04-20T06:37:20.502Z,978.00
2023-04-20T06:38:20.528Z,984.00
2023-04-20T06:39:20.601Z,980.00
2023-04-20T06:40:20.647Z,967.00
2023-04-20T06:41:19.727Z,979.00
2023-04-20T06:42:19.856Z,962.00
2023-04-20T06:43:20.867Z,980.00
2023-04-20T06:44:20.886Z,953.00
2023-04-20T06:45:19.958Z,953.00
2023-04-20T06:46:21.059Z,952.00
2023-04-20T06:47:20.102Z,955.00
2023-04-20T06:48:31.615Z,952.00
2023-04-20T06:49:21.120Z,953.00
2023-04-20T06:50:21.115Z,956.00
2023-04-20T06:51:21.435Z,958.00
2023-04-20T06:52:21.125Z,954.00
2023-04-20T06:53:21.097Z,955.00
2023-04-20T06:54:20.125Z,947.00
2023-04-20T06:55:21.079Z,946.00
2023-04-20T06:56:21.376Z,929.00
2023-04-20T06:57:21.050Z,944.00
2023-04-20T06:58:20.055Z,931.00
2023-04-20T06:59:21.068Z,936.00
2023-04-20T07:00:20.053Z,931.00
2023-04-20T07:01:20.107Z,935.00
2023-04-20T07:02:21.185Z,934.00
2023-04-20T07:03:21.262Z,926.00
2023-04-20T07:04:20.123Z,936.00
2023-04-20T07:05:21.014Z,943.00
2023-04-20T07:06:21.042Z,937.00
2023-04-20T07:07:20.999Z,954.00
2023-04-20T07:08:20.974Z,959.00
2023-04-20T07:09:21.017Z,963.00
2023-04-20T07:10:20.968Z,969.00
2023-04-20T07:11:20.003Z,977.00
2023-04-20T07:12:19.968Z,997.00
2023-04-20T07:13:19.934Z,1002.00
2023-04-20T07:14:20.945Z,1006.00
2023-04-20T07:15:20.939Z,1016.00
2023-04-20T07:16:21.014Z,1036.00
2023-04-20T07:17:19.922Z,1028.00
2023-04-20T07:18:20.941Z,1047.00
2023-04-20T07:19:19.994Z,1063.00
2023-04-20T07:20:20.898Z,1065.00
2023-04-20T07:21:19.889Z,1077.00
2023-04-20T07:22:19.896Z,1094.00
2023-04-20T07:23:19.901Z,1105.00
2023-04-20T07:24:19.897Z,1107.00
2023-04-20T07:25:19.912Z,1116.00
2023-04-20T07:26:20.872Z,1132.00
2023-04-20T07:27:20.857Z,1150.00
2023-04-20T07:28:20.852Z,1157.00
2023-04-20T07:29:21.022Z,1171.00
2023-04-20T07:30:19.875Z,1191.00
2023-04-20T07:31:20.862Z,1188.00
2023-04-20T07:32:20.873Z,1184.00
2023-04-20T07:33:19.811Z,1215.00
2023-04-20T07:34:21.015Z,1217.00
2023-04-20T07:35:19.781Z,1220.00
2023-04-20T07:36:19.875Z,1250.00
2023-04-20T07:37:19.812Z,1252.00
2023-04-20T07:38:20.792Z,1252.00
2023-04-20T07:39:20.082Z,1271.00
2023-04-20T07:40:19.803Z,1287.00
2023-04-20T07:41:20.846Z,1293.00
2023-04-20T07:42:20.854Z,1302.00
2023-04-20T07:43:20.856Z,1307.00
2023-04-20T07:44:20.802Z,1322.00
2023-04-20T07:45:19.838Z,1312.00
2023-04-20T07:46:20.031Z,1297.00
2023-04-20T07:47:21.489Z,1311.00
2023-04-20T07:48:20.873Z,1299.00
2023-04-20T07:49:20.943Z,1290.00
2023-04-20T07:50:20.938Z,1279.00
2023-04-20T07:51:21.417Z,1219.00
2023-04-20T07:52:20.999Z,1218.00
2023-04-20T07:53:20.001Z,1201.00
2023-04-20T07:54:21.030Z,1178.00
2023-04-20T07:55:21.033Z,1142.00
2023-04-20T07:56:20.043Z,1000.00
2023-04-20T07:57:21.074Z,941.00
2023-04-20T07:58:21.098Z,876.00
2023-04-20T07:59:20.148Z,769.00
2023-04-20T08:00:21.181Z,698.00
2023-04-20T08:01:20.252Z,670.00
2023-04-20T08:02:21.467Z,621.00
2023-04-20T08:03:21.693Z,587.00
2023-04-20T08:04:21.726Z,512.00
2023-04-20T08:05:21.638Z,505.00
2023-04-20T08:06:21.583Z,506.00
2023-04-20T08:07:21.628Z,491.00
2023-04-20T08:08:21.648Z,505.00
2023-04-20T08:09:20.691Z,501.00
2023-04-20T08:10:20.762Z,501.00
2023-04-20T08:11:20.835Z,480.00
2023-04-20T08:12:21.895Z,505.00
2023-04-20T08:13:21.900Z,504.00
2023-04-20T08:14:22.910Z,511.00
2023-04-20T08:15:21.061Z,520.00
2023-04-20T08:16:22.158Z,506.00
2023-04-20T08:17:22.191Z,501.00
2023-04-20T08:18:22.234Z,503.00
2023-04-20T08:19:22.246Z,501.00
2023-04-20T08:20:22.287Z,501.00
2023-04-20T08:21:24.852Z,505.00
2023-04-20T08:22:21.413Z,506.00
2023-04-20T08:23:22.339Z,506.00
2023-04-20T08:24:22.294Z,509.00
2023-04-20T08:25:21.307Z,516.00
2023-04-20T08:26:22.289Z,517.00
2023-04-20T08:27:21.273Z,499.00
2023-04-20T08:28:32.841Z,515.00
2023-04-20T08:29:22.299Z,516.00
2023-04-20T08:30:22.278Z,518.00
2023-04-20T08:31:22.480Z,520.00
2023-04-20T08:32:22.726Z,529.00
2023-04-20T08:33:22.245Z,521.00
2023-04-20T08:34:21.221Z,522.00
2023-04-20T08:35:22.239Z,513.00
2023-04-20T08:36:22.239Z,504.00
2023-04-20T08:37:22.217Z,500.00
2023-04-20T08:38:30.634Z,516.00
2023-04-20T08:39:22.214Z,516.00
2023-04-20T08:40:21.197Z,518.00
2023-04-20T08:41:22.169Z,517.00
2023-04-20T08:42:21.457Z,537.00
2023-04-20T08:43:22.183Z,552.00
2023-04-20T08:44:21.170Z,548.00
2023-04-20T08:45:21.156Z,543.00
2023-04-20T08:46:22.173Z,549.00
2023-04-20T08:47:22.200Z,537.00
2023-04-20T08:48:22.128Z,541.00
2023-04-20T08:49:22.111Z,528.00
2023-04-20T08:50:22.122Z,501.00
2023-04-20T08:51:21.098Z,527.00
2023-04-20T08:52:21.192Z,518.00
2023-04-20T08:53:21.104Z,510.00
2023-04-20T08:54:22.189Z,494.00
2023-04-20T08:55:22.084Z,513.00
2023-04-20T08:56:21.938Z,496.00
2023-04-20T08:57:22.431Z,515.00
2023-04-20T08:58:22.281Z,517.00
2023-04-20T08:59:21.369Z,524.00
2023-04-20T09:00:22.448Z,518.00
2023-04-20T09:01:28.640Z,530.00
2023-04-20T09:02:22.717Z,530.00
2023-04-20T09:03:22.573Z,536.00
2023-04-20T09:04:22.664Z,548.00
2023-04-20T09:05:22.529Z,561.00
2023-04-20T09:06:23.303Z,598.00
2023-04-20T09:07:22.391Z,626.00
2023-04-20T09:08:22.354Z,665.00
2023-04-20T09:09:21.351Z,662.00
2023-04-20T09:10:21.417Z,716.00
2023-04-20T09:11:22.369Z,708.00
2023-04-20T09:12:23.032Z,735.00
2023-04-20T09:13:21.331Z,781.00
2023-04-20T09:14:22.317Z,786.00
2023-04-20T09:15:22.313Z,822.00
2023-04-20T09:16:21.351Z,798.00
2023-04-20T09:17:22.333Z,833.00
2023-04-20T09:18:22.298Z,836.00
2023-04-20T09:19:21.288Z,876.00
2023-04-20T09:20:21.357Z,858.00
2023-04-20T09:21:22.303Z,872.00
2023-04-20T09:22:22.321Z,879.00
2023-04-20T09:23:22.375Z,891.00
2023-04-20T09:24:22.338Z,914.00
2023-04-20T09:25:22.318Z,947.00
2023-04-20T09:26:22.322Z,978.00
2023-04-20T09:27:22.301Z,967.00
2023-04-20T09:28:21.303Z,1042.00
2023-04-20T09:29:22.345Z,1018.00
2023-04-20T09:30:22.354Z,1041.00
2023-04-20T09:31:22.333Z,1089.00
2023-04-20T09:32:22.423Z,1089.00
2023-04-20T09:33:22.305Z,1082.00
2023-04-20T09:34:22.314Z,1077.00
2023-04-20T09:35:21.302Z,1162.00
2023-04-20T09:36:22.328Z,1159.00
2023-04-20T09:37:21.316Z,1162.00
2023-04-20T09:38:22.322Z,1186.00
2023-04-20T09:39:22.357Z,1214.00
2023-04-20T09:40:22.480Z,1202.00
2023-04-20T09:41:22.404Z,1222.00
2023-04-20T09:42:22.387Z,1233.00
2023-04-20T09:43:22.360Z,1259.00
2023-04-20T09:44:21.358Z,1269.00
2023-04-20T09:45:22.386Z,1297.00
2023-04-20T09:46:22.520Z,1315.00
2023-04-20T09:47:22.491Z,1300.00
2023-04-20T09:48:22.379Z,1273.00
2023-04-20T09:49:21.432Z,1242.00
2023-04-20T09:50:29.193Z,1268.00
2023-04-20T09:51:22.400Z,1269.00
2023-04-20T09:52:22.459Z,1280.00
2023-04-20T09:53:21.412Z,1291.00
2023-04-20T09:54:22.381Z,1326.00
2023-04-20T09:55:22.389Z,1371.00
2023-04-20T09:56:21.354Z,1409.00
2023-04-20T09:57:22.353Z,1426.00
2023-04-20T09:58:22.515Z,1432.00
2023-04-20T09:59:21.349Z,1453.00
2023-04-20T10:00:22.338Z,1482.00
2023-04-20T10:01:21.374Z,1482.00
2023-04-20T10:02:22.461Z,1507.00
2023-04-20T10:03:21.537Z,1532.00
2023-04-20T10:04:22.764Z,1553.00
2023-04-20T10:05:22.329Z,1554.00
2023-04-20T10:06:21.318Z,1549.00
2023-04-20T10:07:22.286Z,1554.00
2023-04-20T10:08:22.294Z,1565.00
2023-04-20T10:09:22.267Z,1570.00
2023-04-20T10:10:22.265Z,1590.00
2023-04-20T10:11:22.257Z,1601.00
2023-04-20T10:12:21.254Z,1616.00
2023-04-20T10:13:22.276Z,1631.00
2023-04-20T10:14:21.419Z,1632.00
2023-04-20T10:15:22.378Z,1657.00
2023-04-20T10:16:21.457Z,1643.00
2023-04-20T10:17:22.698Z,1655.00
2023-04-20T10:18:22.696Z,1656.00
2023-04-20T10:19:21.588Z,1674.00
2023-04-20T10:20:22.601Z,1686.00
2023-04-20T10:21:21.637Z,1690.00
2023-04-20T10:22:22.718Z,1714.00
2023-04-20T10:23:22.721Z,1726.00
2023-04-20T10:24:21.999Z,1712.00
2023-04-20T10:25:22.775Z,1741.00
2023-04-20T10:26:22.856Z,1751.00
2023-04-20T10:27:21.862Z,1767.00
2023-04-20T10:28:22.906Z,1789.00
2023-04-20T10:29:22.928Z,1787.00
2023-04-20T10:30:23.167Z,1793.00
2023-04-20T10:31:22.029Z,1811.00
2023-04-20T10:32:22.026Z,1815.00
2023-04-20T10:33:23.222Z,1830.00
2023-04-20T10:34:23.108Z,1837.00
2023-04-20T10:35:23.140Z,1837.00
2023-04-20T10:36:22.164Z,1847.00
2023-04-20T10:37:23.470Z,1874.00
2023-04-20T10:38:22.209Z,1897.00
2023-04-20T10:39:23.397Z,1896.00
2023-04-20T10:40:23.277Z,1903.00
2023-04-20T10:41:22.286Z,1921.00
2023-04-20T10:42:22.457Z,1934.00
2023-04-20T10:43:23.393Z,1917.00
2023-04-20T10:44:23.421Z,1941.00
2023-04-20T10:45:23.467Z,1874.00
2023-04-20T10:46:22.669Z,1828.00
2023-04-20T10:47:22.664Z,1835.00
2023-04-20T10:48:22.636Z,1792.00
2023-04-20T10:49:23.671Z,1827.00
2023-04-20T10:50:23.679Z,1796.00
2023-04-20T10:51:23.674Z,1829.00
2023-04-20T10:52:23.668Z,1764.00
2023-04-20T10:53:22.690Z,1722.00
2023-04-20T10:54:22.683Z,1710.00
2023-04-20T10:55:22.682Z,1692.00
2023-04-20T10:56:23.720Z,1694.00
2023-04-20T10:57:22.744Z,1715.00
2023-04-20T10:58:23.755Z,1692.00
2023-04-20T10:59:23.798Z,1665.00
2023-04-20T11:00:23.855Z,1698.00
2023-04-20T11:01:23.873Z,1686.00
2023-04-20T11:02:24.171Z,1694.00
2023-04-20T11:03:24.004Z,1703.00
2023-04-20T11:04:23.922Z,1697.00
2023-04-20T11:05:23.949Z,1696.00
2023-04-20T11:06:23.962Z,1723.00
2023-04-20T11:07:23.984Z,1679.00
2023-04-20T11:08:23.017Z,1710.00
2023-04-20T11:09:24.038Z,1626.00
2023-04-20T11:10:24.051Z,1667.00
2023-04-20T11:11:23.072Z,1626.00
2023-04-20T11:12:23.121Z,1606.00
2023-04-20T11:13:24.132Z,1556.00
2023-04-20T11:14:23.172Z,1530.00
2023-04-20T11:15:24.192Z,1591.00
2023-04-20T11:16:28.120Z,1561.00
2023-04-20T11:17:24.317Z,1562.00
2023-04-20T11:18:24.250Z,1549.00
2023-04-20T11:19:24.262Z,1510.00
2023-04-20T11:20:24.219Z,1501.00
2023-04-20T11:21:24.524Z,1457.00
2023-04-20T11:22:24.214Z,1450.00
2023-04-20T11:23:24.198Z,1438.00
2023-04-20T11:24:23.182Z,1392.00
2023-04-20T11:25:24.234Z,1466.00
2023-04-20T11:26:23.160Z,1414.00
2023-04-20T11:27:24.182Z,1454.00
2023-04-20T11:28:24.243Z,1411.00
2023-04-20T11:29:24.142Z,1437.00
2023-04-20T11:30:23.146Z,1425.00
2023-04-20T11:31:23.283Z,1381.00
2023-04-20T11:32:24.272Z,1365.00
2023-04-20T11:33:23.317Z,1332.00
2023-04-20T11:34:23.264Z,1273.00
2023-04-20T11:35:24.263Z,1273.00
2023-04-20T11:36:23.324Z,1274.00
2023-04-20T11:37:24.358Z,1308.00
2023-04-20T11:38:24.491Z,1310.00
2023-04-20T11:39:23.444Z,1342.00
2023-04-20T11:40:25.697Z,1299.00
2023-04-20T11:41:24.484Z,1297.00
2023-04-20T11:42:23.471Z,1307.00
2023-04-20T11:43:23.497Z,1261.00
2023-04-20T11:44:23.462Z,1236.00
2023-04-20T11:45:23.496Z,1243.00
2023-04-20T11:46:24.478Z,1227.00
2023-04-20T11:47:23.513Z,1212.00
2023-04-20T11:48:23.424Z,1215.00
2023-04-20T11:49:24.428Z,1205.00
2023-04-20T11:50:24.525Z,1216.00
2023-04-20T11:51:23.391Z,1174.00
2023-04-20T11:52:24.398Z,1160.00
2023-04-20T11:53:23.396Z,1141.00
2023-04-20T11:54:24.668Z,1156.00
2023-04-20T11:55:24.456Z,1145.00
2023-04-20T11:56:24.379Z,1127.00
2023-04-20T11:57:24.352Z,1124.00
2023-04-20T11:58:24.355Z,1117.00
2023-04-20T11:59:23.350Z,1079.00
2023-04-20T12:00:23.334Z,1082.00
2023-04-20T12:01:23.335Z,1031.00
2023-04-20T12:02:23.390Z,1049.00
2023-04-20T12:03:24.514Z,1032.00
2023-04-20T12:04:23.623Z,1047.00
2023-04-20T12:05:24.461Z,1012.00
2023-04-20T12:06:23.510Z,977.00
2023-04-20T12:07:24.472Z,971.00
2023-04-20T12:08:24.542Z,912.00
2023-04-20T12:09:24.605Z,904.00
2023-04-20T12:10:24.643Z,917.00
2023-04-20T12:11:24.708Z,921.00
2023-04-20T12:12:23.771Z,901.00
2023-04-20T12:13:23.803Z,866.00
2023-04-20T12:14:24.859Z,737.00
2023-04-20T12:15:24.918Z,764.00
2023-04-20T12:16:25.099Z,804.00
2023-04-20T12:17:24.038Z,796.00
2023-04-20T12:18:24.103Z,729.00
2023-04-20T12:19:24.135Z,620.00
2023-04-20T12:20:24.299Z,643.00
2023-04-20T12:21:24.307Z,617.00
2023-04-20T12:22:25.496Z,633.00
2023-04-20T12:23:25.388Z,539.00